Time;durP1;ratioP1;P1;durP2;ratioP2;P2;SDS_P1;SDS_P2;PMS_P1;PMS_P2;Temp;Humidity;BMP_temperature;BMP_pressure;BME280_temperature;BME280_humidity;BME280_pressure;Samples;Min_cycle;Max_cycle;Signal;HPM_P1;HPM_P2
2022/12/07 00:01:34;;;;;;;129.70;65.03;;;;;;;1.88;100.00;101739.31;5053748;28;20056;-48
2022/12/07 00:04:04;;;;;;;118.10;62.00;;;;;;;1.79;100.00;101739.47;5054345;28;20056;-49
2022/12/07 00:06:31;;;;;;;122.10;62.15;;;;;;;1.77;100.00;101742.66;5054871;28;20033;-48
2022/12/07 00:08:57;;;;;;;138.07;68.07;;;;;;;1.77;100.00;101737.56;5054153;28;20112;-44
2022/12/07 00:11:23;;;;;;;131.73;67.65;;;;;;;1.69;100.00;101743.69;5054196;28;20111;-46
2022/12/07 00:13:54;;;;;;;129.25;64.40;;;;;;;1.68;100.00;101739.38;5054163;28;20049;-45
2022/12/07 00:16:21;;;;;;;128.10;64.15;;;;;;;1.62;100.00;101735.59;5053889;28;20079;-48
2022/12/07 00:18:47;;;;;;;136.93;65.57;;;;;;;1.62;100.00;101727.09;5053908;28;20023;-47
2022/12/07 00:21:18;;;;;;;142.18;70.18;;;;;;;1.59;100.00;101725.19;5053839;28;20021;-46
2022/12/07 00:23:45;;;;;;;142.18;72.43;;;;;;;1.59;100.00;101726.84;5053717;28;20036;-47
2022/12/07 00:26:16;;;;;;;148.85;73.03;;;;;;;1.55;100.00;101719.72;5054432;28;20083;-46
2022/12/07 00:28:50;;;;;;;145.55;74.28;;;;;;;1.56;100.00;101717.34;5053379;28;20021;-46
2022/12/07 00:31:17;;;;;;;147.15;74.25;;;;;;;1.58;100.00;101715.78;5054162;28;20120;-48
2022/12/07 00:33:43;;;;;;;158.95;77.40;;;;;;;1.59;100.00;101714.16;5053949;28;20032;-48
2022/12/07 00:36:11;;;;;;;163.98;80.05;;;;;;;1.60;100.00;101714.25;5053488;28;20021;-45
2022/12/07 00:38:38;;;;;;;157.20;79.35;;;;;;;1.60;100.00;101706.63;5053489;28;20017;-48
2022/12/07 00:41:15;;;;;;;157.68;78.13;;;;;;;1.58;100.00;101715.78;5053889;28;20033;-48
2022/12/07 00:43:42;;;;;;;173.90;82.47;;;;;;;1.61;100.00;101716.03;5053266;28;20051;-49
2022/12/07 00:46:07;;;;;;;161.27;79.40;;;;;;;1.62;100.00;101716.91;5053735;28;20178;-48
2022/12/07 00:48:33;;;;;;;162.23;79.80;;;;;;;1.59;100.00;101720.09;5053547;28;20021;-48
2022/12/07 00:50:58;;;;;;;160.18;79.80;;;;;;;1.60;100.00;101724.44;5053180;28;20487;-47
2022/12/07 00:53:24;;;;;;;161.75;81.40;;;;;;;1.66;100.00;101715.53;5053423;28;20029;-45
2022/12/07 00:55:49;;;;;;;158.98;78.78;;;;;;;1.61;100.00;101716.03;5053366;28;20788;-48
2022/12/07 00:58:15;;;;;;;163.75;79.45;;;;;;;1.63;100.00;101714.50;5053227;28;20028;-48
2022/12/07 01:00:41;;;;;;;162.60;78.72;;;;;;;1.59;100.00;101712.47;5053079;28;20072;-48
2022/12/07 01:03:09;;;;;;;157.35;77.90;;;;;;;1.59;100.00;101709.94;5053495;28;20041;-49
2022/12/07 01:05:34;;;;;;;154.70;76.93;;;;;;;1.58;100.00;101709.81;5053294;28;20107;-47
2022/12/07 01:08:00;;;;;;;149.07;74.85;;;;;;;1.56;100.00;101712.25;5053248;28;20033;-48
2022/12/07 01:10:26;;;;;;;155.98;75.72;;;;;;;1.55;100.00;101702.84;5052799;28;20027;-49
2022/12/07 01:12:51;;;;;;;150.20;73.65;;;;;;;1.51;100.00;101707.53;5052214;28;20040;-45
2022/12/07 01:15:16;;;;;;;146.90;72.97;;;;;;;1.46;100.00;101710.63;5053251;28;20036;-48
2022/12/07 01:17:41;;;;;;;145.50;72.07;;;;;;;1.46;100.00;101699.56;5052508;28;20021;-48
2022/12/07 01:20:07;;;;;;;149.73;74.85;;;;;;;1.50;100.00;101706.66;5052945;28;20041;-44
2022/12/07 01:22:37;;;;;;;147.50;73.90;;;;;;;1.52;100.00;101709.31;5052847;28;20528;-47
2022/12/07 01:25:04;;;;;;;160.38;75.72;;;;;;;1.56;100.00;101709.72;5052645;28;20025;-48
2022/12/07 01:27:29;;;;;;;164.52;80.07;;;;;;;1.63;100.00;101714.50;5052949;28;20086;-48
2022/12/07 01:29:54;;;;;;;173.50;77.50;;;;;;;1.60;100.00;101718.44;5052837;28;20100;-48
2022/12/07 01:32:20;;;;;;;164.60;78.97;;;;;;;1.65;100.00;101717.16;5052514;28;20048;-46
2022/12/07 01:34:47;;;;;;;161.23;79.00;;;;;;;1.70;100.00;101715.88;5052512;28;20070;-47
2022/12/07 01:37:13;;;;;;;163.23;77.82;;;;;;;1.75;100.00;101713.69;5053017;28;20525;-46
2022/12/07 01:39:38;;;;;;;152.07;76.53;;;;;;;1.79;100.00;101705.53;5051864;28;20029;-48
2022/12/07 01:42:03;;;;;;;162.02;74.35;;;;;;;1.85;100.00;101715.28;5052863;28;20024;-48
2022/12/07 01:44:31;;;;;;;144.20;70.25;;;;;;;1.90;100.00;101709.81;5052963;28;20033;-48
2022/12/07 01:47:02;;;;;;;127.13;67.18;;;;;;;1.93;100.00;101712.59;5052434;28;20036;-49
2022/12/07 01:49:34;;;;;;;141.00;65.68;;;;;;;1.93;100.00;101711.72;5052570;28;20037;-45
2022/12/07 01:52:30;;;;;;;130.70;64.88;;;;;;;1.94;100.00;101714.38;5052665;28;20506;-49
2022/12/07 01:55:00;;;;;;;129.82;62.75;;;;;;;1.94;100.00;101710.97;5052515;28;20029;-50
2022/12/07 01:57:26;;;;;;;117.60;57.63;;;;;;;1.93;100.00;101719.34;5052560;28;20403;-48
2022/12/07 01:59:53;;;;;;;114.90;58.08;;;;;;;1.90;100.00;101709.81;5051834;28;20033;-45
2022/12/07 02:02:25;;;;;;;108.23;55.00;;;;;;;1.84;100.00;101714.41;5052202;28;20103;-47
2022/12/07 02:04:53;;;;;;;97.97;50.60;;;;;;;1.78;100.00;101699.59;5052627;28;20318;-45
2022/12/07 02:07:19;;;;;;;102.28;52.28;;;;;;;1.75;100.00;101709.50;5052188;28;20035;-48
2022/12/07 02:09:45;;;;;;;103.45;51.03;;;;;;;1.63;100.00;101701.78;5052163;28;20029;-48
2022/12/07 02:12:10;;;;;;;107.40;51.28;;;;;;;1.63;100.00;101706.00;5052859;28;20079;-48
2022/12/07 02:14:35;;;;;;;88.55;48.58;;;;;;;1.60;100.00;101709.19;5051654;28;20031;-48
2022/12/07 02:17:09;;;;;;;105.82;51.80;;;;;;;1.60;100.00;101710.81;5052167;28;20060;-49
2022/12/07 02:19:59;;;;;;;103.22;52.30;;;;;;;1.58;100.00;101704.75;5051998;28;20043;-46
2022/12/07 02:22:46;;;;;;;106.63;53.30;;;;;;;1.57;100.00;101700.41;5052130;28;20104;-48
2022/12/07 02:25:47;;;;;;;99.22;51.72;;;;;;;1.55;100.00;101704.47;5052508;28;20112;-48
2022/12/07 02:28:29;;;;;;;105.88;51.20;;;;;;;1.44;100.00;101696.88;5056113;28;20036;-44
2022/12/07 02:30:58;;;;;;;114.00;53.33;;;;;;;1.46;100.00;101700.44;5055908;28;20036;-46
2022/12/07 02:33:34;;;;;;;115.70;54.20;;;;;;;1.46;100.00;101699.56;5056360;28;20025;-49
2022/12/07 02:36:08;;;;;;;121.53;54.83;;;;;;;1.46;100.00;101700.44;5055784;28;20107;-45
2022/12/07 02:38:50;;;;;;;114.78;54.95;;;;;;;1.42;100.00;101695.91;5055956;28;20024;-47
2022/12/07 02:41:35;;;;;;;112.90;56.00;;;;;;;1.46;100.00;101700.44;5056430;28;20056;-46
2022/12/07 02:44:09;;;;;;;110.15;55.30;;;;;;;1.47;100.00;101696.25;5055562;28;20112;-48
2022/12/07 02:46:41;;;;;;;115.13;57.33;;;;;;;1.49;100.00;101697.28;5056009;28;20061;-47
2022/12/07 02:49:08;;;;;;;118.88;57.20;;;;;;;1.53;100.00;101700.94;5055794;28;20039;-46
2022/12/07 02:51:40;;;;;;;129.27;56.50;;;;;;;1.54;100.00;101688.38;5055527;28;20075;-48
2022/12/07 02:54:12;;;;;;;110.82;58.15;;;;;;;1.50;100.00;101693.06;5055957;28;20543;-49
2022/12/07 02:56:43;;;;;;;120.22;60.42;;;;;;;1.50;100.00;101699.06;5055085;28;20500;-47
2022/12/07 02:59:17;;;;;;;123.03;61.80;;;;;;;1.47;100.00;101697.16;5055773;28;20025;-49
2022/12/07 03:02:06;;;;;;;123.78;59.30;;;;;;;1.44;100.00;101701.09;5055500;28;20082;-49
2022/12/07 03:04:53;;;;;;;131.20;60.22;;;;;;;1.44;100.00;101707.03;5054898;28;20091;-44
2022/12/07 03:07:33;;;;;;;136.50;64.32;;;;;;;1.44;100.00;101703.63;5055411;28;20535;-48
2022/12/07 03:10:10;;;;;;;128.32;59.55;;;;;;;1.45;100.00;101697.78;5055089;28;20479;-45
2022/12/07 03:12:48;;;;;;;116.45;60.97;;;;;;;1.43;100.00;101699.31;5055099;28;20083;-47
2022/12/07 03:15:26;;;;;;;117.22;60.30;;;;;;;1.44;100.00;101696.00;5055598;28;20021;-48
2022/12/07 03:17:55;;;;;;;126.75;60.03;;;;;;;1.42;100.00;101698.44;5054879;28;20039;-48
2022/12/07 03:20:23;;;;;;;114.18;59.15;;;;;;;1.48;100.00;101698.03;5055498;28;20028;-48
2022/12/07 03:22:51;;;;;;;113.78;57.95;;;;;;;1.43;100.00;101697.69;5055073;28;20384;-48
2022/12/07 03:25:17;;;;;;;104.63;53.92;;;;;;;1.41;100.00;101695.78;5054883;28;20107;-49
2022/12/07 03:28:00;;;;;;;120.75;54.45;;;;;;;1.42;100.00;101695.91;5054767;28;20031;-46
2022/12/07 03:30:42;;;;;;;107.90;54.47;;;;;;;1.35;100.00;101697.81;5055535;28;20028;-48
2022/12/07 03:33:17;;;;;;;102.43;52.17;;;;;;;1.35;100.00;101700.34;5054682;28;20131;-48
2022/12/07 03:35:49;;;;;;;98.88;51.08;;;;;;;1.30;100.00;101688.19;5054822;28;20029;-48
2022/12/07 03:38:19;;;;;;;105.30;49.45;;;;;;;1.44;100.00;101693.47;5054263;28;20488;-46
2022/12/07 03:40:58;;;;;;;106.07;52.35;;;;;;;1.39;100.00;101697.28;5054325;28;20380;-47
2022/12/07 03:43:24;;;;;;;106.68;48.20;;;;;;;1.47;100.00;101693.69;5055235;28;20074;-48
2022/12/07 03:45:58;;;;;;;104.93;50.38;;;;;;;1.57;100.00;101692.78;5054238;28;20103;-46
2022/12/07 03:48:49;;;;;;;102.80;52.50;;;;;;;1.63;100.00;101684.00;5054788;28;20036;-48
2022/12/07 03:51:31;;;;;;;108.65;51.03;;;;;;;1.71;100.00;101687.16;5055114;28;20106;-45
2022/12/07 03:54:07;;;;;;;112.80;49.17;;;;;;;1.75;100.00;101673.03;5054514;28;20063;-48
2022/12/07 03:56:34;;;;;;;93.60;47.80;;;;;;;1.76;100.00;101682.44;5054592;28;20037;-48
2022/12/07 03:59:00;;;;;;;93.32;47.90;;;;;;;1.78;100.00;101676.72;5054262;28;20025;-47
2022/12/07 04:01:25;;;;;;;86.63;45.55;;;;;;;1.81;100.00;101683.69;5054587;28;20029;-47
2022/12/07 04:03:50;;;;;;;97.13;46.05;;;;;;;1.83;100.00;101677.06;5054290;28;20166;-48
2022/12/07 04:06:16;;;;;;;81.00;42.83;;;;;;;1.85;100.00;101685.69;5054251;28;20052;-46
2022/12/07 04:08:41;;;;;;;84.40;44.42;;;;;;;1.86;100.00;101690.03;5053987;28;20104;-48
2022/12/07 04:11:06;;;;;;;92.32;43.75;;;;;;;1.87;100.00;101688.34;5054510;28;20036;-48
2022/12/07 04:14:18;;;;;;;87.45;43.00;;;;;;;1.85;100.00;101694.97;5053576;28;20078;-46
2022/12/07 04:16:17;;;;;;;84.75;42.17;;;;;;;1.83;100.00;101688.88;5054182;28;20473;-48
2022/12/07 04:18:42;;;;;;;73.43;38.70;;;;;;;1.80;100.00;101687.00;5054236;28;20017;-46
2022/12/07 04:21:07;;;;;;;82.97;39.47;;;;;;;1.80;100.00;101687.00;5053662;28;20039;-48
2022/12/07 04:23:33;;;;;;;66.75;37.35;;;;;;;1.84;100.00;101689.00;5053795;28;20017;-45
2022/12/07 04:25:58;;;;;;;76.35;38.30;;;;;;;1.85;100.00;101690.78;5054307;28;20036;-48
2022/12/07 04:28:23;;;;;;;78.90;38.30;;;;;;;1.89;100.00;101691.91;5053537;28;20388;-44
2022/12/07 04:30:48;;;;;;;75.15;36.47;;;;;;;1.88;100.00;101691.00;5053775;28;20021;-47
2022/12/07 04:33:14;;;;;;;74.45;37.35;;;;;;;1.90;100.00;101683.50;5054223;28;20025;-48
2022/12/07 04:35:39;;;;;;;69.22;35.47;;;;;;;1.91;100.00;101678.56;5053386;28;20360;-46
2022/12/07 04:38:04;;;;;;;73.30;36.05;;;;;;;1.92;100.00;101682.84;5053951;28;20493;-47
2022/12/07 04:40:30;;;;;;;70.18;36.40;;;;;;;1.93;100.00;101673.59;5054040;28;20056;-45
2022/12/07 04:42:55;;;;;;;70.97;34.83;;;;;;;1.93;100.00;101677.00;5053023;28;20025;-48
2022/12/07 04:45:20;;;;;;;73.72;35.30;;;;;;;1.93;100.00;101674.47;5053643;28;20071;-48
2022/12/07 04:47:45;;;;;;;79.10;33.90;;;;;;;1.92;100.00;101674.34;5053025;28;20032;-44
2022/12/07 04:50:11;;;;;;;72.88;33.05;;;;;;;1.89;100.00;101672.44;5052912;28;20116;-45
2022/12/07 04:52:36;;;;;;;69.82;30.73;;;;;;;1.87;100.00;101673.97;5053163;28;20020;-47
2022/12/07 04:55:01;;;;;;;68.63;30.73;;;;;;;1.84;100.00;101671.22;5053759;28;20079;-44
2022/12/07 04:57:27;;;;;;;66.63;31.98;;;;;;;1.83;100.00;101673.63;5053272;28;20368;-47
2022/12/07 04:59:52;;;;;;;62.78;29.60;;;;;;;1.82;100.00;101667.66;5053378;28;20143;-48
2022/12/07 05:02:17;;;;;;;70.70;31.13;;;;;;;1.81;100.00;101660.81;5053368;28;20032;-44
2022/12/07 05:04:42;;;;;;;60.50;30.08;;;;;;;1.77;100.00;101677.47;5052586;28;20388;-48
2022/12/07 05:07:08;;;;;;;58.33;29.23;;;;;;;1.72;100.00;101670.28;5053625;28;20028;-48
2022/12/07 05:09:33;;;;;;;54.22;29.02;;;;;;;1.72;100.00;101662.66;5052613;28;20100;-48
2022/12/07 05:11:58;;;;;;;61.17;30.08;;;;;;;1.62;100.00;101661.88;5053204;28;20483;-44
2022/12/07 05:14:24;;;;;;;65.28;32.63;;;;;;;1.59;100.00;101660.78;5053509;28;20033;-48
2022/12/07 05:16:50;;;;;;;71.65;34.90;;;;;;;1.58;100.00;101661.56;5052378;28;20024;-48
2022/12/07 05:19:17;;;;;;;71.15;34.90;;;;;;;1.56;100.00;101665.59;5052873;28;20021;-48
2022/12/07 05:21:43;;;;;;;72.60;36.10;;;;;;;1.47;100.00;101660.69;5052853;28;20419;-48
2022/12/07 05:24:11;;;;;;;75.70;38.47;;;;;;;1.47;100.00;101658.13;5052675;28;20064;-47
2022/12/07 05:26:36;;;;;;;88.32;41.20;;;;;;;1.51;100.00;101669.44;5052447;28;20025;-47
2022/12/07 05:29:02;;;;;;;91.60;43.40;;;;;;;1.48;100.00;101667.53;5053264;28;20031;-44
2022/12/07 05:31:28;;;;;;;94.22;44.25;;;;;;;1.49;100.00;101669.31;5052887;28;20033;-46
2022/12/07 05:33:53;;;;;;;93.93;46.15;;;;;;;1.50;100.00;101671.09;5052591;28;20390;-47
2022/12/07 05:36:18;;;;;;;98.55;46.17;;;;;;;1.45;100.00;101664.78;5052927;28;20083;-47
2022/12/07 05:38:44;;;;;;;90.65;45.65;;;;;;;1.40;100.00;101679.63;5052150;28;20028;-46
2022/12/07 05:42:11;;;;;;;89.78;44.53;;;;;;;1.36;100.00;101671.66;5052508;28;20029;-48
2022/12/07 05:43:59;;;;;;;94.30;46.33;;;;;;;1.30;100.00;101672.94;5052810;28;20468;-49
2022/12/07 05:46:25;;;;;;;86.43;42.67;;;;;;;1.12;100.00;101661.28;5052274;28;20112;-48
2022/12/07 05:48:50;;;;;;;91.72;43.47;;;;;;;1.05;100.00;101662.44;5052418;28;20021;-47
2022/12/07 05:51:15;;;;;;;80.85;43.95;;;;;;;1.02;100.00;101658.78;5052769;28;20096;-47
2022/12/07 05:53:41;;;;;;;77.35;44.05;;;;;;;0.94;100.00;101655.59;5051701;28;20384;-45
2022/12/07 05:56:06;;;;;;;87.07;44.42;;;;;;;0.91;100.00;101652.84;5052920;28;20472;-46
2022/12/07 06:01:15;;;;;;;90.95;45.08;;;;;;;0.77;100.00;101657.66;5052389;28;20107;-47
2022/12/07 06:03:41;;;;;;;102.22;45.67;;;;;;;0.70;100.00;101657.94;5052149;28;20488;-46
2022/12/07 06:06:06;;;;;;;99.78;45.38;;;;;;;0.64;100.00;101655.75;5052008;28;20029;-46
2022/12/07 06:08:31;;;;;;;95.75;47.67;;;;;;;0.62;100.00;101657.28;5051939;28;20494;-44
2022/12/07 06:13:40;;;;;;;98.90;48.17;;;;;;;0.58;100.00;101657.81;5051955;28;20044;-48
2022/12/07 06:16:06;;;;;;;115.13;53.45;;;;;;;0.62;100.00;101653.84;5052469;28;20025;-45
2022/12/07 06:18:31;;;;;;;110.35;54.75;;;;;;;0.61;100.00;101658.03;5052384;28;20033;-44
2022/12/07 06:20:56;;;;;;;127.45;56.78;;;;;;;0.60;100.00;101661.34;5051712;28;20036;-49
2022/12/07 06:23:21;;;;;;;123.32;59.15;;;;;;;0.62;100.00;101654.75;5052385;28;20060;-48
2022/12/07 06:25:47;;;;;;;132.20;57.67;;;;;;;0.66;100.00;101663.50;5052113;28;20036;-47
2022/12/07 06:28:12;;;;;;;128.60;60.15;;;;;;;0.69;100.00;101660.34;5051884;28;20033;-46
2022/12/07 06:30:37;;;;;;;125.45;59.08;;;;;;;0.70;100.00;101664.63;5051994;28;20021;-47
2022/12/07 06:33:03;;;;;;;130.15;61.10;;;;;;;0.74;100.00;101670.09;5052451;28;20104;-48
2022/12/07 06:35:28;;;;;;;143.10;63.08;;;;;;;0.81;100.00;101664.78;5051660;28;20383;-48
2022/12/07 06:37:53;;;;;;;138.07;64.72;;;;;;;0.92;100.00;101663.09;5052161;28;20480;-49
2022/12/07 06:40:18;;;;;;;140.00;65.20;;;;;;;0.99;100.00;101669.56;5052342;28;20053;-46
2022/12/07 06:42:44;;;;;;;157.85;66.60;;;;;;;1.04;100.00;101659.78;5051410;28;20044;-48
2022/12/07 06:45:09;;;;;;;163.23;71.55;;;;;;;1.13;100.00;101658.88;5052415;28;20074;-48
2022/12/07 06:47:35;;;;;;;153.18;75.32;;;;;;;1.20;100.00;101664.44;5052108;28;20381;-46
2022/12/07 06:50:00;;;;;;;155.18;70.38;;;;;;;1.25;100.00;101653.91;5051423;28;20027;-48
2022/12/07 06:52:25;;;;;;;146.40;65.78;;;;;;;1.26;100.00;101657.31;5052426;28;20083;-49
2022/12/07 06:54:50;;;;;;;136.02;62.40;;;;;;;1.22;100.00;101656.19;5051439;28;20025;-45
2022/12/07 06:57:16;;;;;;;121.20;55.40;;;;;;;1.12;100.00;101663.81;5052009;28;20021;-48
2022/12/07 06:59:41;;;;;;;118.13;54.13;;;;;;;1.12;100.00;101666.38;5051938;28;20029;-47
2022/12/07 07:02:08;;;;;;;106.30;51.28;;;;;;;1.06;100.00;101671.84;5051864;28;20411;-48
2022/12/07 07:04:33;;;;;;;112.37;53.27;;;;;;;1.05;100.00;101670.06;5051354;28;20410;-48
2022/12/07 07:06:58;;;;;;;105.88;51.28;;;;;;;0.97;100.00;101671.97;5052204;28;20029;-45
2022/12/07 07:09:24;;;;;;;113.18;53.72;;;;;;;1.03;100.00;101676.66;5051385;28;20029;-49
2022/12/07 07:11:49;;;;;;;110.25;54.15;;;;;;;1.02;100.00;101674.00;5052802;28;20029;-48
2022/12/07 07:14:18;;;;;;;120.43;55.15;;;;;;;1.02;100.00;101674.00;5055883;28;20059;-45
2022/12/07 07:16:44;;;;;;;117.28;58.90;;;;;;;1.04;100.00;101675.03;5054732;28;20112;-48
2022/12/07 07:19:09;;;;;;;116.97;58.38;;;;;;;1.08;100.00;101674.50;5055153;28;20115;-46
2022/12/07 07:21:34;;;;;;;115.97;58.58;;;;;;;1.06;100.00;101666.78;5055979;28;20033;-47
2022/12/07 07:24:00;;;;;;;113.20;56.90;;;;;;;1.07;100.00;101673.63;5055002;28;20074;-46
2022/12/07 07:26:25;;;;;;;117.60;56.70;;;;;;;1.10;100.00;101675.53;5055004;28;20033;-45
2022/12/07 07:28:50;;;;;;;115.22;58.75;;;;;;;1.12;100.00;101669.81;5055031;28;20486;-46
2022/12/07 07:31:15;;;;;;;117.70;59.47;;;;;;;1.15;100.00;101667.50;5054679;28;20036;-46
2022/12/07 07:33:41;;;;;;;120.38;60.03;;;;;;;1.19;100.00;101668.66;5054614;28;20151;-48
2022/12/07 07:36:06;;;;;;;134.07;61.85;;;;;;;1.21;100.00;101667.09;5055330;28;20086;-48
2022/12/07 07:38:32;;;;;;;134.25;61.00;;;;;;;1.25;100.00;101673.31;5054394;28;20029;-46
2022/12/07 07:40:57;;;;;;;118.68;59.15;;;;;;;1.26;100.00;101673.44;5054934;28;20459;-49
2022/12/07 07:43:22;;;;;;;120.25;59.42;;;;;;;1.30;100.00;101674.56;5055161;28;20021;-49
2022/12/07 07:45:47;;;;;;;124.80;58.22;;;;;;;1.31;100.00;101667.06;5054332;28;20499;-46
2022/12/07 07:48:13;;;;;;;127.53;58.83;;;;;;;1.35;100.00;101669.88;5054843;28;20021;-48
2022/12/07 07:50:38;;;;;;;123.72;57.70;;;;;;;1.37;100.00;101670.88;5054491;28;20082;-47
2022/12/07 07:53:03;;;;;;;112.90;57.88;;;;;;;1.38;100.00;101670.13;5054200;28;20112;-48
2022/12/07 07:55:29;;;;;;;117.53;60.13;;;;;;;1.38;100.00;101672.66;5054913;28;20013;-47
2022/12/07 07:57:54;;;;;;;95.82;53.92;;;;;;;1.36;100.00;101672.53;5054412;28;20162;-45
2022/12/07 08:00:19;;;;;;;97.80;50.33;;;;;;;1.34;100.00;101673.19;5053895;28;20025;-45
2022/12/07 08:02:45;;;;;;;91.20;50.22;;;;;;;1.32;100.00;101675.59;5054169;28;20056;-47
2022/12/07 08:05:11;;;;;;;88.35;45.15;;;;;;;1.25;100.00;101678.41;5054179;28;20029;-46
2022/12/07 08:07:37;;;;;;;84.07;45.75;;;;;;;1.24;100.00;101681.69;5054239;28;20036;-47
2022/12/07 08:10:03;;;;;;;89.47;44.97;;;;;;;1.15;100.00;101681.88;5054675;28;20036;-46
2022/12/07 08:12:28;;;;;;;87.55;45.90;;;;;;;1.14;100.00;101682.63;5053995;28;20021;-48
2022/12/07 08:14:53;;;;;;;106.57;47.30;;;;;;;1.14;100.00;101680.97;5053925;28;20033;-46
2022/12/07 08:17:18;;;;;;;97.78;48.05;;;;;;;1.12;100.00;101686.69;5054387;28;20122;-45
2022/12/07 08:19:44;;;;;;;99.18;49.33;;;;;;;1.15;100.00;101679.34;5053350;28;20048;-48
2022/12/07 08:22:09;;;;;;;100.93;51.33;;;;;;;1.16;100.00;101683.63;5053947;28;20112;-48
2022/12/07 08:24:36;;;;;;;101.32;54.63;;;;;;;1.21;100.00;101696.69;5054205;28;20021;-48
2022/12/07 08:27:01;;;;;;;104.03;55.75;;;;;;;1.28;100.00;101689.69;5053951;28;20025;-47
2022/12/07 08:29:26;;;;;;;112.43;58.50;;;;;;;1.38;100.00;101692.97;5053903;28;20029;-47
2022/12/07 08:31:52;;;;;;;124.53;60.88;;;;;;;1.46;100.00;101694.50;5053744;28;20108;-44
2022/12/07 08:34:17;;;;;;;109.18;56.85;;;;;;;1.55;100.00;101695.22;5053457;28;20032;-44
2022/12/07 08:36:42;;;;;;;99.18;55.15;;;;;;;1.63;100.00;101698.38;5053740;28;20109;-45
2022/12/07 08:39:08;;;;;;;101.22;51.17;;;;;;;1.70;100.00;101693.00;5054122;28;20020;-49
2022/12/07 08:41:34;;;;;;;89.90;50.20;;;;;;;1.76;100.00;101701.09;5053171;28;20439;-48
2022/12/07 08:43:59;;;;;;;93.65;48.35;;;;;;;1.86;100.00;101702.72;5053611;28;20455;-47
2022/12/07 08:46:33;;;;;;;80.18;45.10;;;;;;;1.87;100.00;101698.53;5054085;28;20039;-47
2022/12/07 08:49:16;;;;;;;81.68;42.38;;;;;;;1.91;100.00;101703.97;5052945;28;20417;-45
2022/12/07 08:51:42;;;;;;;74.47;38.88;;;;;;;1.94;100.00;101700.78;5053436;28;20376;-46
2022/12/07 08:54:13;;;;;;;86.38;39.15;;;;;;;1.96;100.00;101692.50;5053924;28;20468;-48
2022/12/07 08:56:38;;;;;;;67.35;35.70;;;;;;;2.00;100.00;101686.00;5052526;28;20025;-48
2022/12/07 08:59:05;;;;;;;69.70;36.05;;;;;;;2.02;100.00;101688.69;5053522;28;20052;-47
2022/12/07 09:01:30;;;;;;;72.80;34.50;;;;;;;2.01;100.00;101691.97;5052816;28;20535;-45
2022/12/07 09:03:55;;;;;;;74.03;36.03;;;;;;;2.00;100.00;101685.13;5052966;28;20124;-47
2022/12/07 09:06:21;;;;;;;64.07;33.25;;;;;;;2.01;100.00;101691.97;5053383;28;20392;-47
2022/12/07 09:08:49;;;;;;;67.32;33.72;;;;;;;2.02;100.00;101688.69;5052524;28;20057;-46
2022/12/07 09:11:14;;;;;;;65.28;32.13;;;;;;;2.05;100.00;101683.81;5053052;28;20026;-47
2022/12/07 09:13:40;;;;;;;67.22;33.63;;;;;;;2.09;100.00;101690.91;5052853;28;20453;-47
2022/12/07 09:16:05;;;;;;;64.80;31.98;;;;;;;2.11;100.00;101685.16;5052706;28;20036;-47
2022/12/07 09:18:30;;;;;;;62.03;31.83;;;;;;;2.13;100.00;101687.81;5053279;28;20033;-45
2022/12/07 09:20:56;;;;;;;61.17;31.45;;;;;;;2.13;100.00;101690.38;5053215;28;20029;-45
2022/12/07 09:23:22;;;;;;;70.72;29.45;;;;;;;2.09;100.00;101685.81;5052723;28;20024;-47
2022/12/07 09:25:47;;;;;;;56.60;27.98;;;;;;;2.08;100.00;101691.66;5052588;28;20032;-46
2022/12/07 09:28:12;;;;;;;56.90;28.95;;;;;;;2.04;100.00;101687.13;5052979;28;20025;-45
2022/12/07 09:30:38;;;;;;;55.47;28.42;;;;;;;2.00;100.00;101685.13;5052378;28;20638;-45
2022/12/07 09:33:03;;;;;;;59.40;27.30;;;;;;;1.99;100.00;101689.31;5052643;28;20098;-47
2022/12/07 09:35:28;;;;;;;59.20;27.60;;;;;;;1.97;100.00;101691.72;5052549;28;20115;-46
2022/12/07 09:37:53;;;;;;;57.53;27.30;;;;;;;1.95;100.00;101690.72;5052400;28;20067;-48
2022/12/07 09:40:22;;;;;;;57.50;28.45;;;;;;;1.98;100.00;101693.50;5052873;28;20024;-47
2022/12/07 09:42:51;;;;;;;55.13;28.17;;;;;;;2.00;100.00;101698.69;5052515;28;20025;-48
2022/12/07 09:45:36;;;;;;;54.83;27.45;;;;;;;2.08;100.00;101694.22;5052258;28;20350;-46
2022/12/07 09:48:05;;;;;;;58.03;28.55;;;;;;;2.17;100.00;101689.88;5053022;28;20020;-47
2022/12/07 09:50:31;;;;;;;65.82;28.33;;;;;;;2.29;100.00;101685.69;5052650;28;20478;-47
2022/12/07 09:53:12;;;;;;;79.15;32.63;;;;;;;2.51;100.00;101692.44;5052047;28;20017;-45
2022/12/07 09:55:38;;;;;;;66.93;26.48;;;;;;;2.64;100.00;101690.03;5052673;28;20048;-47
2022/12/07 09:58:03;;;;;;;52.25;27.92;;;;;;;2.83;100.00;101686.31;5052320;28;20083;-44
2022/12/07 10:00:29;;;;;;;54.63;26.90;;;;;;;2.97;100.00;101680.59;5052676;28;20040;-48
2022/12/07 10:02:56;;;;;;;56.28;27.05;;;;;;;3.21;100.00;101685.69;5052353;28;20049;-47
2022/12/07 10:05:36;;;;;;;61.30;27.95;;;;;;;3.46;100.00;101690.03;5052298;28;20053;-49
2022/12/07 10:08:02;;;;;;;52.47;23.52;;;;;;;3.72;100.00;101680.78;5052429;28;20029;-47
2022/12/07 10:10:31;;;;;;;58.88;22.50;;;;;;;3.95;100.00;101673.09;5052559;28;20052;-48
2022/12/07 10:12:59;;;;;;;43.95;18.35;;;;;;;3.97;100.00;101677.44;5052230;28;20021;-47
2022/12/07 10:15:52;;;;;;;41.47;17.88;;;;;;;4.09;100.00;101668.06;5052564;28;20119;-47
2022/12/07 10:18:28;;;;;;;40.28;16.15;;;;;;;4.21;100.00;101666.38;5052504;28;20052;-47
2022/12/07 10:21:02;;;;;;;41.72;17.13;;;;;;;4.25;100.00;101670.91;5051593;28;20047;-47
2022/12/07 10:23:28;;;;;;;32.60;14.10;;;;;;;4.19;100.00;101664.50;5052675;28;20175;-46
2022/12/07 10:25:54;;;;;;;38.58;14.80;;;;;;;4.21;100.00;101665.47;5051629;28;20104;-45
2022/12/07 10:28:20;;;;;;;32.83;12.48;;;;;;;4.14;100.00;101663.28;5052225;28;20067;-48
2022/12/07 10:30:50;;;;;;;38.08;18.23;;;;;;;4.23;100.00;101658.81;5052024;28;20033;-49
2022/12/07 10:33:34;;;;;;;67.60;34.63;;;;;;;4.31;100.00;101662.75;5052058;28;20028;-49
2022/12/07 10:36:15;;;;;;;47.45;19.67;;;;;;;4.33;100.00;101662.91;5052130;28;20513;-46
2022/12/07 10:39:03;;;;;;;48.55;24.15;;;;;;;4.40;100.00;101654.84;5052082;28;20375;-49
2022/12/07 10:41:28;;;;;;;45.50;22.00;;;;;;;4.70;100.00;101655.13;5051540;28;20488;-49
2022/12/07 10:43:56;;;;;;;44.38;19.98;;;;;;;5.01;100.00;101641.81;5052148;28;20057;-46
2022/12/07 10:46:47;;;;;;;48.47;19.75;;;;;;;5.30;100.00;101653.06;5052902;28;20104;-48
2022/12/07 10:49:28;;;;;;;34.78;15.80;;;;;;;5.46;100.00;101642.13;5055480;28;20152;-46
2022/12/07 10:52:08;;;;;;;37.67;15.02;;;;;;;5.33;100.00;101646.44;5055971;28;20062;-45
2022/12/07 10:54:39;;;;;;;44.45;16.13;;;;;;;5.18;100.00;101643.81;5055370;28;20040;-48
2022/12/07 10:57:19;;;;;;;34.42;13.57;;;;;;;5.06;100.00;101635.34;5055973;28;20032;-47
2022/12/07 11:00:01;;;;;;;49.92;20.23;;;;;;;5.12;100.00;101638.28;5055468;28;20380;-47
2022/12/07 11:02:55;;;;;;;36.33;15.95;;;;;;;5.15;100.00;101635.06;5055193;28;20025;-46
2022/12/07 11:05:36;;;;;;;42.78;16.38;;;;;;;5.18;100.00;101628.47;5056040;28;20052;-48
2022/12/07 11:08:13;;;;;;;44.00;16.60;;;;;;;5.03;100.00;101632.59;5055506;28;20080;-46
2022/12/07 11:10:52;;;;;;;40.13;15.63;;;;;;;5.10;100.00;101624.56;5055201;28;20433;-47
2022/12/07 11:13:46;;;;;;;39.30;15.27;;;;;;;5.32;100.00;101625.91;5055823;28;20052;-48
2022/12/07 11:16:18;;;;;;;35.97;14.38;;;;;;;5.35;100.00;101618.44;5044321;28;20041;-45
2022/12/07 11:19:14;;;;;;;35.95;14.85;;;;;;;5.38;100.00;101618.63;5055268;28;20108;-45